createdAt,value
2022-12-03T00:02:18.219Z,97153.44
2022-12-03T00:06:18.866Z,97148.75
2022-12-03T00:10:19.092Z,97148.59
2022-12-03T00:14:19.202Z,97153.06
2022-12-03T00:18:21.925Z,97147.41
2022-12-03T00:22:22.057Z,97140.03
2022-12-03T00:26:22.160Z,97150.16
2022-12-03T00:30:22.566Z,97120.19
2022-12-03T00:34:25.262Z,97144.09
2022-12-03T00:38:25.508Z,97150.16
2022-12-03T00:42:25.636Z,97141.22
2022-12-03T00:46:25.743Z,97145.91
2022-12-03T00:50:28.550Z,97129.94
2022-12-03T00:54:32.116Z,97149.00
2022-12-03T00:58:32.464Z,97149.78
2022-12-03T01:02:32.796Z,97145.31
2022-12-03T01:06:35.488Z,97148.94
2022-12-03T01:10:35.598Z,97156.47
2022-12-03T01:14:35.724Z,97154.66
2022-12-03T01:18:35.787Z,97150.59
2022-12-03T01:22:38.653Z,97150.59
2022-12-03T01:26:39.004Z,97139.28
2022-12-03T01:30:59.761Z,97144.31
2022-12-03T01:35:00.180Z,97088.38
2022-12-03T01:39:03.055Z,97149.75
2022-12-03T01:43:03.151Z,97146.06
2022-12-03T01:47:07.043Z,97144.88
2022-12-03T01:51:07.902Z,97146.91
2022-12-03T01:55:18.006Z,97146.91
2022-12-03T01:59:21.453Z,97150.34
2022-12-03T02:03:27.188Z,97146.88
2022-12-03T02:07:30.746Z,97152.63
2022-12-03T02:11:38.394Z,97121.41
2022-12-03T02:15:39.691Z,97156.22
2022-12-03T02:19:39.944Z,97110.00
2022-12-03T02:23:53.423Z,97148.53
2022-12-03T02:27:58.348Z,97120.94
2022-12-03T02:31:59.168Z,97151.19
2022-12-03T02:36:03.595Z,97123.44
2022-12-03T02:40:09.706Z,97124.38
2022-12-03T02:44:13.103Z,97144.69
2022-12-03T02:48:19.460Z,97142.22
2022-12-03T02:52:19.790Z,97145.28
2022-12-03T02:56:24.088Z,97122.19
2022-12-03T03:00:27.423Z,97142.88
2022-12-03T03:04:28.170Z,97148.94
2022-12-03T03:08:29.857Z,97149.00
2022-12-03T03:12:32.592Z,97150.97
2022-12-03T03:16:38.673Z,97154.84
2022-12-03T03:20:39.692Z,97135.13
2022-12-03T03:24:40.331Z,97149.38
2022-12-03T03:28:44.575Z,97151.59
2022-12-03T03:32:47.343Z,97134.75
2022-12-03T03:36:48.558Z,97114.31
2022-12-03T03:40:50.669Z,97150.97
2022-12-03T03:44:51.136Z,97147.72
2022-12-03T03:48:55.279Z,97111.25
2022-12-03T03:52:56.054Z,97150.78
2022-12-03T03:56:56.275Z,97151.38
2022-12-03T04:00:56.463Z,97154.66
2022-12-03T04:04:59.211Z,97143.66
2022-12-03T04:08:59.370Z,97148.94
2022-12-03T04:12:56.867Z,97161.50
2022-12-03T04:16:57.019Z,97129.47
2022-12-03T04:21:19.796Z,97143.00
2022-12-03T04:25:32.478Z,97138.38
2022-12-03T04:29:33.356Z,97069.31
2022-12-03T04:33:46.062Z,97146.88
2022-12-03T04:37:48.798Z,97130.88
2022-12-03T04:41:48.958Z,97120.53
2022-12-03T04:45:49.187Z,97143.19
2022-12-03T04:49:51.849Z,97140.41
2022-12-03T04:53:54.550Z,97142.22
2022-12-03T04:57:54.810Z,97118.94
2022-12-03T05:01:55.006Z,97134.13
2022-12-03T05:05:55.383Z,97134.75
2022-12-03T05:09:58.051Z,97131.84
2022-12-03T05:13:58.138Z,97133.41
2022-12-03T05:17:58.323Z,97068.03
2022-12-03T05:21:58.439Z,97132.22
2022-12-03T05:26:01.112Z,97115.06
2022-12-03T05:30:01.370Z,97100.00
2022-12-03T05:34:01.500Z,97107.75
2022-12-03T05:38:01.673Z,97082.19
2022-12-03T05:42:16.886Z,97128.41
2022-12-03T05:46:16.948Z,97137.19
2022-12-03T05:50:17.257Z,97128.03
2022-12-03T05:54:17.353Z,97097.00
2022-12-03T05:58:20.060Z,97075.09
2022-12-03T06:02:20.560Z,97105.22
2022-12-03T06:06:20.768Z,97104.63
2022-12-03T06:10:24.432Z,97105.72
2022-12-03T06:14:27.103Z,97117.47
2022-12-03T06:18:27.250Z,97118.91
2022-12-03T06:22:27.359Z,97131.47
2022-12-03T06:26:27.407Z,97138.38
2022-12-03T06:30:30.241Z,97126.16
2022-12-03T06:34:31.099Z,97122.06
2022-12-03T06:38:31.264Z,97131.47
2022-12-03T06:42:31.513Z,97131.03
2022-12-03T06:46:34.268Z,97106.34
2022-12-03T06:50:34.623Z,97141.63
2022-12-03T06:54:34.707Z,97144.47
2022-12-03T06:58:34.783Z,97148.16
2022-12-03T07:02:37.482Z,97155.41
2022-12-03T07:06:37.730Z,97157.44
2022-12-03T07:10:37.852Z,97156.63
2022-12-03T07:14:37.943Z,97147.50
2022-12-03T07:18:40.801Z,97161.00
2022-12-03T07:22:40.943Z,97160.63
2022-12-03T07:26:41.081Z,97160.22
2022-12-03T07:30:41.204Z,97151.44
2022-12-03T07:34:43.875Z,97148.81
2022-12-03T07:38:43.990Z,97153.53
2022-12-03T07:42:44.056Z,97154.94
2022-12-03T07:46:44.901Z,97148.09
2022-12-03T07:50:47.775Z,97152.75
2022-12-03T07:54:49.541Z,97150.13
2022-12-03T07:58:49.785Z,97143.78
2022-12-03T08:02:50.123Z,97116.28
2022-12-03T08:06:52.953Z,97139.34
2022-12-03T08:10:53.538Z,97136.31
2022-12-03T08:14:54.021Z,97097.03
2022-12-03T08:18:57.644Z,97132.31
2022-12-03T08:23:00.779Z,97079.00
2022-12-03T08:27:01.262Z,97123.25
2022-12-03T08:31:08.495Z,97120.22
2022-12-03T08:35:16.116Z,97106.22
2022-12-03T08:39:33.731Z,97114.25
2022-12-03T08:43:42.092Z,97114.25
2022-12-03T08:47:42.669Z,97119.19
2022-12-03T08:51:42.734Z,97114.84
2022-12-03T08:55:51.711Z,97117.06
2022-12-03T09:00:22.561Z,97090.06
2022-12-03T09:04:38.917Z,97117.34
2022-12-03T09:08:39.123Z,97100.91
2022-12-03T09:12:41.831Z,97110.88
2022-12-03T09:16:42.655Z,97124.78
2022-12-03T09:20:43.192Z,97133.38
2022-12-03T09:24:43.235Z,97107.38
2022-12-03T09:28:46.401Z,97115.53
2022-12-03T09:32:47.420Z,97130.03
2022-12-03T09:36:49.121Z,97115.72
2022-12-03T09:40:49.439Z,97096.34
2022-12-03T09:44:52.329Z,97120.00
2022-12-03T09:48:53.367Z,97099.53
2022-12-03T09:52:57.382Z,97117.66
2022-12-03T09:57:02.387Z,97109.03
2022-12-03T10:01:05.301Z,97113.44
2022-12-03T10:05:05.526Z,97110.97
2022-12-03T10:09:07.079Z,97110.06
2022-12-03T10:13:09.913Z,97063.50
2022-12-03T10:17:14.467Z,97093.88
2022-12-03T10:21:23.063Z,97065.22
2022-12-03T10:25:25.594Z,97118.59
2022-12-03T10:29:33.593Z,97096.94
2022-12-03T10:33:40.462Z,97091.94
2022-12-03T10:37:59.683Z,97062.63
2022-12-03T10:42:18.680Z,97063.44
2022-12-03T10:46:23.022Z,97096.47
2022-12-03T10:50:26.064Z,97028.56
2022-12-03T10:54:28.838Z,97069.44
2022-12-03T10:58:32.074Z,97088.84
2022-12-03T11:02:32.412Z,97078.06
2022-12-03T11:06:35.956Z,97012.22
2022-12-03T11:10:36.164Z,97061.66
2022-12-03T11:15:10.341Z,97056.16
2022-12-03T11:19:19.861Z,97033.91
2022-12-03T11:24:08.129Z,97045.72
2022-12-03T11:28:51.783Z,97047.91
2022-12-03T11:33:24.539Z,97019.16
2022-12-03T11:37:27.632Z,96998.94
2022-12-03T11:41:34.863Z,96993.16
2022-12-03T11:45:39.416Z,97026.81
2022-12-03T11:49:49.503Z,97009.78
2022-12-03T11:53:52.468Z,97028.94
2022-12-03T11:58:02.227Z,97028.00
2022-12-03T12:02:04.437Z,96981.84
2022-12-03T12:06:08.356Z,97000.69
2022-12-03T12:10:10.155Z,97007.38
2022-12-03T12:14:14.582Z,97010.81
2022-12-03T12:18:41.106Z,96969.25
2022-12-03T12:22:41.310Z,96963.19
2022-12-03T12:26:41.431Z,96980.09
2022-12-03T12:30:44.385Z,97000.25
2022-12-03T12:34:47.427Z,96956.31
2022-12-03T12:38:47.514Z,96992.44
2022-12-03T12:42:54.141Z,97000.63
2022-12-03T12:46:57.434Z,96995.16
2022-12-03T12:51:04.417Z,96999.34
2022-12-03T12:55:05.347Z,96981.41
2022-12-03T12:59:16.265Z,96959.47
2022-12-03T13:03:21.494Z,96949.09
2022-12-03T13:07:22.454Z,96972.91
2022-12-03T13:11:42.249Z,96973.66
2022-12-03T13:15:55.870Z,96948.34
2022-12-03T13:20:07.699Z,96972.00
2022-12-03T13:24:39.413Z,96943.38
2022-12-03T13:28:39.529Z,96967.91
2022-12-03T13:32:41.680Z,96871.66
2022-12-03T13:36:50.721Z,96878.72
2022-12-03T13:41:05.763Z,96962.34
2022-12-03T13:45:32.394Z,96940.97
2022-12-03T13:49:33.004Z,96960.53
2022-12-03T13:53:41.977Z,96896.94
2022-12-03T13:57:42.296Z,96938.53
2022-12-03T14:01:42.853Z,96953.19
2022-12-03T14:05:43.260Z,96962.41
2022-12-03T14:09:46.345Z,96955.38
2022-12-03T14:13:46.513Z,96959.78
2022-12-03T14:17:46.605Z,96951.25
2022-12-03T14:21:46.714Z,96970.03
2022-12-03T14:25:49.533Z,96955.59
2022-12-03T14:29:49.915Z,96963.66
2022-12-03T14:33:50.358Z,96958.06
2022-12-03T14:37:50.460Z,96941.03
2022-12-03T14:42:05.674Z,96943.41
2022-12-03T14:46:05.815Z,96948.91
2022-12-03T14:50:08.157Z,96956.88
2022-12-03T14:54:08.459Z,96954.44
2022-12-03T14:58:11.271Z,96957.97
2022-12-03T15:02:13.608Z,96949.84
2022-12-03T15:06:13.937Z,96902.69
2022-12-03T15:10:16.403Z,96937.53
2022-12-03T15:14:19.455Z,96893.47
2022-12-03T15:18:19.962Z,96876.19
2022-12-03T15:22:20.341Z,96920.75
2022-12-03T15:26:20.716Z,96946.63
2022-12-03T15:30:23.713Z,96919.50
2022-12-03T15:34:23.995Z,96943.78
2022-12-03T15:38:25.408Z,96930.88
2022-12-03T15:42:25.668Z,96865.47
2022-12-03T15:46:31.693Z,96931.81
2022-12-03T15:50:35.765Z,96932.78
2022-12-03T15:54:40.257Z,96897.19
2022-12-03T15:58:40.556Z,96939.19
2022-12-03T16:02:49.150Z,96899.09
2022-12-03T16:06:52.584Z,96841.53
2022-12-03T16:10:53.061Z,96938.06
2022-12-03T16:14:53.208Z,96880.00
2022-12-03T16:18:55.895Z,96944.44
2022-12-03T16:22:56.131Z,96869.56
2022-12-03T16:26:56.280Z,96934.28
2022-12-03T16:30:56.421Z,96935.09
2022-12-03T16:34:59.272Z,96934.81
2022-12-03T16:38:59.346Z,96935.22
2022-12-03T16:43:00.342Z,96942.53
2022-12-03T16:47:01.626Z,96845.31
2022-12-03T16:51:04.367Z,96925.44
2022-12-03T16:55:04.659Z,96919.50
2022-12-03T16:59:04.720Z,96931.13
2022-12-03T17:03:05.095Z,96929.78
2022-12-03T17:07:07.990Z,96919.50
2022-12-03T17:11:08.598Z,96927.41
2022-12-03T17:15:10.031Z,96931.63
2022-12-03T17:19:10.181Z,96919.81
2022-12-03T17:23:12.896Z,96935.75
2022-12-03T17:27:13.105Z,96933.09
2022-12-03T17:31:13.453Z,96923.63
2022-12-03T17:35:15.212Z,96932.44
2022-12-03T17:39:17.889Z,96928.28
2022-12-03T17:43:17.991Z,96922.59
2022-12-03T17:47:18.142Z,96908.84
2022-12-03T17:51:19.350Z,96912.53
2022-12-03T17:55:32.120Z,96920.44
2022-12-03T17:59:36.241Z,96916.59
2022-12-03T18:03:36.345Z,96918.59
2022-12-03T18:07:36.630Z,96928.81
2022-12-03T18:11:39.392Z,96924.22
2022-12-03T18:15:39.527Z,96920.44
2022-12-03T18:19:39.704Z,96910.19
2022-12-03T18:23:40.443Z,96894.03
2022-12-03T18:27:43.198Z,96914.41
2022-12-03T18:31:43.365Z,96913.13
2022-12-03T18:35:43.719Z,96902.69
2022-12-03T18:39:48.250Z,96903.69
2022-12-03T18:43:52.017Z,96896.66
2022-12-03T18:47:52.187Z,96874.66
2022-12-03T18:51:59.058Z,96886.28
2022-12-03T18:55:59.583Z,96896.50
2022-12-03T19:00:02.369Z,96890.47
2022-12-03T19:04:02.999Z,96885.38
2022-12-03T19:08:03.538Z,96885.69
2022-12-03T19:12:03.753Z,96895.69
2022-12-03T19:16:09.890Z,96889.78
2022-12-03T19:20:12.681Z,96888.03
2022-12-03T19:24:28.292Z,96882.59
2022-12-03T19:28:30.121Z,96876.72
2022-12-03T19:32:32.994Z,96873.78
2022-12-03T19:36:35.067Z,96873.22
2022-12-03T19:40:35.145Z,96856.47
2022-12-03T19:44:35.266Z,96854.47
2022-12-03T19:48:39.911Z,96867.03
2022-12-03T19:52:40.051Z,96799.63
2022-12-03T19:56:40.415Z,96833.06
2022-12-03T20:00:40.574Z,96877.44
2022-12-03T20:04:43.307Z,96873.78
2022-12-03T20:08:44.043Z,96870.25
2022-12-03T20:12:44.138Z,96868.63
2022-12-03T20:16:44.877Z,96856.00
2022-12-03T20:20:47.739Z,96857.91
2022-12-03T20:24:47.768Z,96877.13
2022-12-03T20:28:48.880Z,96876.28
2022-12-03T20:32:49.052Z,96865.81
2022-12-03T20:36:51.740Z,96853.53
2022-12-03T20:40:52.800Z,96837.25
2022-12-03T20:44:55.084Z,96845.19
2022-12-03T20:48:56.441Z,96843.28
2022-12-03T20:53:23.240Z,96844.00
2022-12-03T20:57:19.141Z,96829.25
2022-12-03T21:01:22.133Z,96840.06
2022-12-03T21:05:22.360Z,96842.53
2022-12-03T21:09:25.148Z,96836.09
2022-12-03T21:13:29.366Z,96837.97
2022-12-03T21:17:32.541Z,96822.56
2022-12-03T21:21:32.890Z,96815.53
2022-12-03T21:25:37.004Z,96797.84
2022-12-03T21:29:37.216Z,96811.44
2022-12-03T21:33:38.720Z,96820.63
2022-12-03T21:37:38.907Z,96804.28
2022-12-03T21:41:41.657Z,96819.75
2022-12-03T21:46:01.837Z,96828.69
2022-12-03T21:50:02.255Z,96819.28
2022-12-03T21:54:02.388Z,96825.03
2022-12-03T21:58:05.110Z,96821.69
2022-12-03T22:02:05.352Z,96818.72
2022-12-03T22:06:05.538Z,96813.81
2022-12-03T22:10:06.868Z,96793.22
2022-12-03T22:14:09.983Z,96813.00
2022-12-03T22:18:10.130Z,96799.63
2022-12-03T22:22:10.834Z,96796.09
2022-12-03T22:26:15.073Z,96788.47
2022-12-03T22:30:18.225Z,96787.31
2022-12-03T22:34:18.376Z,96782.78
2022-12-03T22:38:18.495Z,96772.66
2022-12-03T22:42:18.828Z,96772.94
2022-12-03T22:46:21.664Z,96771.94
2022-12-03T22:50:21.912Z,96763.81
2022-12-03T22:54:24.106Z,96773.41
2022-12-03T22:58:25.576Z,96773.56
2022-12-03T23:02:28.277Z,96785.47
2022-12-03T23:06:29.519Z,96721.00
2022-12-03T23:10:33.958Z,96773.66
2022-12-03T23:14:34.306Z,96787.59
2022-12-03T23:18:37.269Z,96783.78
2022-12-03T23:22:37.413Z,96778.88
2022-12-03T23:26:40.069Z,96732.38
2022-12-03T23:30:41.600Z,96746.22
2022-12-03T23:34:44.323Z,96758.00
2022-12-03T23:38:45.068Z,96755.66
2022-12-03T23:42:45.311Z,96756.66
2022-12-03T23:46:45.531Z,96748.16
2022-12-03T23:50:48.287Z,96745.00
2022-12-03T23:54:49.425Z,96745.19
2022-12-03T23:58:49.706Z,96751.19
